• images/banner/banner1.jpg
  • images/banner/banner2.jpg

Team Member Login

Aviation Weather

[source: ADDS]
METAR
EGVN 270150Z AUTO 05008KT 9999 NCD 05/02 Q1023 =
TAF
TAF AMD EGVN 270212Z 2703/2803 08008KT CAVOK BECMG 2703/2705 7000 BR BKN008 TEMPO 2703/2708 4000 BR BKN005 PROB40 TEMPO 2703/2706 1500 BR BKN001 BECMG 2708/2711 CAVOK =